Time;durP1;ratioP1;P1;durP2;ratioP2;P2;SDS_P1;SDS_P2;PMS_P1;PMS_P2;Temp;Humidity;BMP_temperature;BMP_pressure;BME280_temperature;BME280_humidity;BME280_pressure;Samples;Min_cycle;Max_cycle;Signal;HPM_P1;HPM_P2
2022/09/13 00:00:42;;;;;;;0.85;0.80;;;17.20;99.90;;;;;;4980041;28;20045;-91
2022/09/13 00:03:09;;;;;;;0.90;0.43;;;17.20;99.90;;;;;;4996781;28;20046;-92
2022/09/13 00:05:36;;;;;;;1.55;0.90;;;17.10;99.90;;;;;;4980540;28;20145;-91
2022/09/13 00:08:03;;;;;;;2.42;0.68;;;17.10;99.90;;;;;;4979834;28;20085;-91
2022/09/13 00:10:29;;;;;;;;;;;17.10;99.90;;;;;;4964638;28;20068;-92
2022/09/13 00:12:54;;;;;;;0.90;0.75;;;17.10;99.90;;;;;;4995880;28;20387;-91
2022/09/13 00:15:20;;;;;;;1.23;1.03;;;17.10;99.90;;;;;;4980041;28;20054;-92
2022/09/13 00:17:46;;;;;;;1.00;0.90;;;17.20;99.90;;;;;;4963861;28;20058;-92
2022/09/13 00:20:12;;;;;;;1.95;0.70;;;17.20;99.90;;;;;;4980387;28;20056;-93
2022/09/13 00:22:38;;;;;;;1.05;0.77;;;17.20;99.90;;;;;;4996538;28;20054;-92
2022/09/13 00:25:05;;;;;;;1.65;0.95;;;17.20;99.90;;;;;;4979578;28;20042;-93
2022/09/13 00:27:35;;;;;;;1.15;0.88;;;17.30;99.90;;;;;;4980014;28;20046;-92
2022/09/13 00:30:03;;;;;;;1.27;0.77;;;17.20;99.90;;;;;;4963747;28;20052;-93
2022/09/13 00:32:29;;;;;;;2.50;1.52;;;17.20;99.90;;;;;;4980048;28;20053;-92
2022/09/13 00:34:55;;;;;;;0.95;0.93;;;17.00;99.90;;;;;;4995844;28;20046;-93
2022/09/13 00:37:21;;;;;;;0.60;0.50;;;17.30;99.90;;;;;;4979818;28;20037;-94
2022/09/13 00:39:46;;;;;;;2.08;0.93;;;17.20;99.90;;;;;;4963801;28;20049;-93
2022/09/13 00:42:13;;;;;;;1.37;0.67;;;17.20;99.90;;;;;;4948587;28;20046;-94
2022/09/13 00:44:57;;;;;;;;;;;17.20;99.90;;;;;;4980403;28;20108;-95
2022/09/13 00:47:38;;;;;;;1.08;0.88;;;17.20;99.90;;;;;;4996847;28;19921;-93
2022/09/13 00:50:09;;;;;;;1.98;1.00;;;17.20;99.90;;;;;;4995860;28;20046;-94
2022/09/13 00:52:37;;;;;;;0.93;0.60;;;17.20;99.90;;;;;;4980421;28;20049;-93
2022/09/13 00:55:14;;;;;;;2.53;1.10;;;17.20;99.90;;;;;;4979621;28;20053;-94
2022/09/13 00:57:41;;;;;;;2.05;0.80;;;17.20;99.90;;;;;;4996423;28;20132;-93
2022/09/13 01:00:10;;;;;;;;;;;17.20;99.90;;;;;;4979559;28;20061;-92
2022/09/13 01:02:40;;;;;;;1.13;1.02;;;17.20;99.90;;;;;;4979494;28;19921;-92
2022/09/13 01:05:07;;;;;;;2.08;0.95;;;17.20;99.90;;;;;;4995296;28;20514;-91
2022/09/13 01:07:33;;;;;;;0.45;0.40;;;17.20;99.90;;;;;;4979796;28;20046;-91
2022/09/13 01:09:59;;;;;;;0.88;0.60;;;17.20;99.90;;;;;;4978949;28;20161;-91
2022/09/13 01:12:38;;;;;;;1.08;0.73;;;17.20;99.90;;;;;;4963335;28;20481;-91
2022/09/13 01:15:05;;;;;;;0.63;0.60;;;17.20;99.90;;;;;;4978906;28;20562;-90
2022/09/13 01:17:32;;;;;;;2.20;0.82;;;17.20;99.90;;;;;;4979338;28;20050;-90
2022/09/13 01:19:59;;;;;;;1.50;1.08;;;17.20;99.90;;;;;;4978755;28;20038;-91
2022/09/13 01:23:12;;;;;;;0.85;0.50;;;17.20;99.90;;;;;;4979381;28;20046;-90
2022/09/13 01:26:25;;;;;;;1.60;1.00;;;17.20;99.90;;;;;;4997191;28;20049;-90
2022/09/13 01:29:18;;;;;;;0.63;0.60;;;17.20;99.90;;;;;;4999100;28;20088;-90
2022/09/13 01:32:10;;;;;;;1.17;0.60;;;17.20;99.90;;;;;;4982848;28;20133;-90
2022/09/13 01:34:48;;;;;;;1.95;0.90;;;17.20;99.90;;;;;;4983216;28;20053;-90
2022/09/13 01:37:42;;;;;;;0.63;0.40;;;17.20;99.90;;;;;;4998872;28;20046;-90
2022/09/13 01:40:23;;;;;;;1.40;0.90;;;17.20;99.90;;;;;;4982540;28;20050;-90
2022/09/13 01:43:02;;;;;;;1.30;0.55;;;17.20;99.90;;;;;;4982760;28;20058;-90
2022/09/13 01:45:56;;;;;;;1.65;0.70;;;17.20;99.90;;;;;;4998987;28;20378;-90
2022/09/13 01:48:57;;;;;;;1.52;1.23;;;17.10;99.90;;;;;;4999292;28;20045;-89
2022/09/13 01:51:31;;;;;;;1.27;0.77;;;17.10;99.90;;;;;;4959988;28;20052;-89
2022/09/13 01:54:35;;;;;;;1.15;0.95;;;17.10;99.90;;;;;;4982363;28;20053;-90
2022/09/13 01:57:34;;;;;;;1.48;0.77;;;17.10;99.90;;;;;;4983973;28;20053;-90
2022/09/13 02:00:06;;;;;;;1.45;1.13;;;17.10;99.90;;;;;;4998344;28;20400;-90
2022/09/13 02:02:38;;;;;;;2.97;1.00;;;17.10;99.90;;;;;;4983616;28;20085;-89
2022/09/13 02:05:27;;;;;;;1.10;1.00;;;17.10;99.90;;;;;;4998201;28;20056;-90
2022/09/13 02:07:59;;;;;;;3.08;1.00;;;17.10;99.90;;;;;;4998713;28;20112;-88
2022/09/13 02:10:29;;;;;;;1.20;0.82;;;17.10;99.90;;;;;;4998682;28;20050;-90
2022/09/13 02:12:58;;;;;;;1.80;1.23;;;17.10;99.90;;;;;;4998687;28;20045;-89
2022/09/13 02:15:35;;;;;;;2.17;0.98;;;17.10;99.90;;;;;;4982568;28;20046;-89
2022/09/13 02:18:05;;;;;;;2.65;1.00;;;17.10;99.90;;;;;;4981956;28;20038;-90
2022/09/13 02:20:35;;;;;;;1.23;1.05;;;17.10;99.90;;;;;;4998499;28;20085;-90
2022/09/13 02:23:15;;;;;;;2.25;1.02;;;17.10;99.90;;;;;;4997978;28;20053;-90
2022/09/13 02:25:45;;;;;;;1.90;1.27;;;17.10;99.90;;;;;;4982590;28;20052;-89
2022/09/13 02:28:16;;;;;;;2.38;0.80;;;17.00;99.90;;;;;;4982036;28;20045;-90
2022/09/13 02:30:48;;;;;;;2.22;1.05;;;17.00;99.90;;;;;;4998191;28;20472;-89
2022/09/13 02:33:29;;;;;;;1.88;1.27;;;17.00;99.90;;;;;;4997997;28;20125;-89
2022/09/13 02:36:03;;;;;;;1.77;0.80;;;17.00;99.90;;;;;;4998179;28;20052;-89
2022/09/13 02:39:01;;;;;;;1.45;1.05;;;17.00;99.90;;;;;;4997705;28;20144;-89
2022/09/13 02:42:04;;;;;;;1.77;0.80;;;17.00;99.90;;;;;;4998186;28;20072;-89
2022/09/13 02:44:41;;;;;;;2.28;1.30;;;17.00;99.90;;;;;;4981683;28;20088;-90
2022/09/13 02:47:36;;;;;;;1.42;1.30;;;17.00;99.90;;;;;;4981531;28;20089;-89
2022/09/13 02:50:08;;;;;;;1.70;0.82;;;17.00;99.90;;;;;;4997694;28;20117;-89
2022/09/13 02:52:53;;;;;;;2.83;1.55;;;17.00;99.90;;;;;;4981531;28;20046;-90
2022/09/13 02:55:27;;;;;;;1.35;0.75;;;16.90;99.90;;;;;;4981267;28;20447;-89
2022/09/13 02:57:58;;;;;;;1.98;0.98;;;16.90;99.90;;;;;;4997784;28;20049;-89
2022/09/13 03:00:24;;;;;;;1.73;1.17;;;17.00;99.90;;;;;;4997291;28;20430;-89
2022/09/13 03:02:52;;;;;;;3.65;1.30;;;16.90;99.90;;;;;;4981477;28;20054;-89
2022/09/13 03:05:18;;;;;;;2.22;0.85;;;16.90;99.90;;;;;;4981073;28;20050;-90
2022/09/13 03:07:43;;;;;;;2.42;1.40;;;16.90;99.90;;;;;;4997544;28;20042;-89
2022/09/13 03:10:13;;;;;;;2.22;0.98;;;16.90;99.90;;;;;;4964571;28;20045;-89
2022/09/13 03:12:51;;;;;;;2.00;1.38;;;16.80;99.90;;;;;;4997415;28;20165;-89
2022/09/13 03:15:35;;;;;;;2.33;1.00;;;16.90;99.90;;;;;;4980672;28;20533;-89
2022/09/13 03:18:29;;;;;;;1.35;1.10;;;16.80;99.90;;;;;;4981058;28;20054;-89
2022/09/13 03:21:06;;;;;;;0.93;0.85;;;16.80;99.90;;;;;;4980839;28;20050;-89
2022/09/13 03:23:44;;;;;;;1.42;1.17;;;16.80;99.90;;;;;;4996545;28;20054;-89
2022/09/13 03:26:19;;;;;;;1.23;0.80;;;16.80;99.90;;;;;;4980736;28;20485;-89
2022/09/13 03:29:19;;;;;;;1.15;0.85;;;16.80;99.90;;;;;;4997411;28;20053;-89
2022/09/13 03:31:50;;;;;;;2.42;0.90;;;16.80;99.90;;;;;;4997122;28;20148;-89
2022/09/13 03:34:24;;;;;;;2.10;1.15;;;16.80;99.90;;;;;;4996728;28;20547;-89
2022/09/13 03:37:02;;;;;;;1.40;0.90;;;16.80;99.90;;;;;;4997305;28;20124;-89
2022/09/13 03:39:43;;;;;;;1.88;1.33;;;16.80;99.90;;;;;;4980484;28;20049;-90
2022/09/13 03:42:23;;;;;;;1.45;0.75;;;16.80;99.90;;;;;;4996984;28;20075;-89
2022/09/13 03:44:52;;;;;;;2.03;0.90;;;16.90;99.90;;;;;;4996898;28;20492;-89
2022/09/13 03:47:20;;;;;;;1.88;0.77;;;16.90;99.90;;;;;;4980308;28;20045;-89
2022/09/13 03:49:46;;;;;;;0.70;0.68;;;16.90;99.90;;;;;;4979640;28;20049;-89
2022/09/13 03:52:12;;;;;;;1.80;1.13;;;16.90;99.90;;;;;;4964477;28;20068;-89
2022/09/13 03:54:38;;;;;;;1.48;0.88;;;16.90;99.90;;;;;;4980632;28;20042;-89
2022/09/13 03:57:09;;;;;;;2.65;1.33;;;17.00;99.90;;;;;;4980561;28;20088;-89
2022/09/13 03:59:37;;;;;;;2.30;0.95;;;17.00;99.90;;;;;;4996254;28;20377;-89
2022/09/13 04:02:06;;;;;;;2.33;1.13;;;17.00;99.90;;;;;;4964628;28;20069;-90
2022/09/13 04:04:32;;;;;;;1.95;0.90;;;17.00;99.90;;;;;;4996154;28;20050;-89
2022/09/13 04:07:02;;;;;;;1.52;0.90;;;17.00;99.90;;;;;;4980587;28;20088;-89
2022/09/13 04:09:27;;;;;;;1.85;1.08;;;17.00;99.90;;;;;;4979513;28;20085;-89
2022/09/13 04:11:53;;;;;;;1.35;0.88;;;17.10;99.90;;;;;;4996296;28;20207;-90
2022/09/13 04:14:19;;;;;;;1.37;0.70;;;17.00;99.90;;;;;;4963867;28;20511;-90
2022/09/13 04:16:45;;;;;;;1.10;1.00;;;17.00;99.90;;;;;;4996445;28;20293;-89
2022/09/13 04:19:10;;;;;;;1.35;0.80;;;17.10;99.90;;;;;;4996375;28;20050;-90
2022/09/13 04:21:37;;;;;;;1.33;1.03;;;17.10;99.90;;;;;;4995658;28;20315;-90
2022/09/13 04:24:03;;;;;;;1.27;0.68;;;17.10;99.90;;;;;;4948139;28;20045;-89
2022/09/13 04:26:28;;;;;;;2.17;1.00;;;17.10;99.90;;;;;;4963841;28;20050;-90
2022/09/13 04:28:54;;;;;;;1.35;0.60;;;17.10;99.90;;;;;;4965146;28;20057;-89
2022/09/13 04:31:20;;;;;;;0.68;0.55;;;17.10;99.90;;;;;;4979441;28;20117;-90
2022/09/13 04:33:46;;;;;;;0.90;0.60;;;17.10;99.90;;;;;;4981069;28;20466;-89
2022/09/13 04:36:11;;;;;;;0.40;0.40;;;17.10;99.90;;;;;;4964084;28;20355;-89
2022/09/13 04:38:37;;;;;;;0.77;0.53;;;17.10;99.90;;;;;;4979375;28;20297;-89
2022/09/13 04:41:03;;;;;;;1.02;0.65;;;17.20;99.90;;;;;;4963734;28;20380;-89
2022/09/13 04:43:28;;;;;;;1.65;0.70;;;17.10;99.90;;;;;;4995181;28;20546;-89
2022/09/13 04:45:59;;;;;;;0.98;0.55;;;17.20;99.90;;;;;;4979619;28;20125;-89
2022/09/13 04:48:25;;;;;;;1.08;0.70;;;17.20;99.90;;;;;;4979364;28;20077;-89
2022/09/13 04:50:51;;;;;;;1.03;0.30;;;17.20;99.90;;;;;;4963114;28;20070;-89
2022/09/13 04:53:17;;;;;;;1.15;0.77;;;17.20;99.90;;;;;;4979765;28;20289;-89
2022/09/13 04:55:43;;;;;;;0.82;0.77;;;17.20;99.90;;;;;;4979340;28;20054;-90
2022/09/13 04:58:08;;;;;;;1.25;0.73;;;17.20;99.90;;;;;;4964315;28;20476;-89
2022/09/13 05:00:34;;;;;;;0.60;0.52;;;17.20;99.90;;;;;;4978955;28;20046;-89
2022/09/13 05:03:00;;;;;;;1.05;0.73;;;17.20;99.90;;;;;;4995400;28;20110;-90
2022/09/13 05:05:27;;;;;;;0.95;0.70;;;17.20;99.90;;;;;;4979126;28;20049;-89
2022/09/13 05:07:53;;;;;;;1.48;0.95;;;17.30;99.90;;;;;;4963734;28;20100;-89
2022/09/13 05:10:19;;;;;;;0.22;0.20;;;17.20;99.90;;;;;;4995374;28;20038;-89
2022/09/13 05:12:45;;;;;;;0.77;0.30;;;17.30;99.90;;;;;;4978953;28;20052;-89
2022/09/13 05:15:11;;;;;;;0.85;0.40;;;17.20;99.90;;;;;;4979438;28;20064;-89
2022/09/13 05:17:37;;;;;;;0.50;0.50;;;17.20;99.90;;;;;;4979007;28;20050;-90
2022/09/13 05:20:04;;;;;;;1.38;0.32;;;17.20;99.90;;;;;;4979317;28;20041;-89
2022/09/13 05:22:30;;;;;;;0.70;0.55;;;17.20;99.90;;;;;;4979240;28;20088;-89
2022/09/13 05:24:56;;;;;;;1.15;0.60;;;17.30;99.90;;;;;;4979289;28;20081;-89
2022/09/13 05:27:22;;;;;;;0.52;0.50;;;17.30;99.90;;;;;;5012722;28;20085;-89
2022/09/13 05:29:47;;;;;;;0.85;0.43;;;17.20;99.90;;;;;;4978891;28;20045;-89
2022/09/13 05:32:13;;;;;;;0.43;0.30;;;17.20;99.90;;;;;;4962880;28;20082;-89
2022/09/13 05:34:39;;;;;;;0.40;0.30;;;17.20;99.90;;;;;;4994922;28;20058;-89
2022/09/13 05:37:04;;;;;;;0.45;0.45;;;17.20;99.90;;;;;;4979274;28;20050;-89
2022/09/13 05:39:30;;;;;;;1.00;0.67;;;17.20;99.90;;;;;;4946890;28;20069;-90
2022/09/13 05:41:56;;;;;;;0.23;0.20;;;17.20;99.90;;;;;;4995368;28;20667;-89
2022/09/13 05:44:21;;;;;;;0.68;0.65;;;17.20;99.90;;;;;;4978564;28;20303;-89
2022/09/13 05:46:47;;;;;;;0.60;0.60;;;17.20;99.90;;;;;;4994846;28;20454;-89
2022/09/13 05:49:13;;;;;;;0.63;0.55;;;17.20;99.90;;;;;;4979092;28;20042;-89
2022/09/13 05:51:39;;;;;;;0.20;0.15;;;17.20;99.90;;;;;;4994568;28;20514;-89
2022/09/13 05:54:05;;;;;;;0.13;0.13;;;17.10;99.90;;;;;;4978839;28;20046;-89
2022/09/13 05:56:31;;;;;;;0.65;0.25;;;17.10;99.90;;;;;;4995364;28;20050;-89
2022/09/13 05:58:57;;;;;;;0.50;0.38;;;17.10;99.90;;;;;;4995305;28;20054;-89
2022/09/13 06:01:26;;;;;;;0.38;0.38;;;17.10;99.90;;;;;;4995199;28;20104;-89
2022/09/13 06:03:54;;;;;;;0.60;0.50;;;17.10;99.90;;;;;;4978444;28;20042;-89
2022/09/13 06:06:21;;;;;;;0.43;0.30;;;17.10;99.90;;;;;;4978907;28;20500;-89
2022/09/13 06:08:50;;;;;;;0.80;0.30;;;17.10;99.90;;;;;;4962452;28;20515;-89
2022/09/13 06:11:16;;;;;;;0.85;0.17;;;17.10;99.90;;;;;;4978908;28;20038;-90
2022/09/13 06:13:42;;;;;;;0.10;0.10;;;17.10;99.90;;;;;;4981811;28;20131;-90
2022/09/13 06:16:10;;;;;;;0.57;0.20;;;17.10;99.90;;;;;;4966556;28;20500;-89
2022/09/13 06:18:37;;;;;;;0.10;0.10;;;17.00;99.90;;;;;;4981866;28;20050;-90
2022/09/13 06:21:07;;;;;;;;;;;17.00;99.90;;;;;;4982648;28;20046;-90
2022/09/13 06:23:33;;;;;;;0.13;0.13;;;16.90;99.90;;;;;;4982211;28;19921;-89
2022/09/13 06:26:08;;;;;;;0.28;0.25;;;16.90;99.90;;;;;;4965757;28;20056;-89
2022/09/13 06:28:35;;;;;;;0.10;0.10;;;16.90;99.90;;;;;;4982080;28;20046;-90
2022/09/13 06:31:02;;;;;;;;;;;16.90;99.90;;;;;;4997965;28;20493;-88
2022/09/13 06:33:27;;;;;;;0.20;0.20;;;16.90;99.90;;;;;;4982097;28;20012;-89
2022/09/13 06:35:53;;;;;;;0.03;0.03;;;16.90;99.90;;;;;;4965716;28;20085;-89
2022/09/13 06:38:19;;;;;;;0.20;0.10;;;16.90;99.90;;;;;;4981947;28;20304;-88
2022/09/13 06:40:44;;;;;;;0.13;0.13;;;16.80;99.90;;;;;;4981621;28;20050;-89
2022/09/13 06:43:10;;;;;;;0.00;0.00;;;16.80;99.90;;;;;;4965877;28;20056;-89
2022/09/13 06:45:36;;;;;;;0.00;0.00;;;16.80;99.90;;;;;;4949887;28;20370;-88
2022/09/13 06:48:02;;;;;;;1.10;0.55;;;16.80;99.90;;;;;;4981527;28;20304;-88
2022/09/13 06:50:28;;;;;;;0.03;0.03;;;16.80;99.90;;;;;;4981730;28;20077;-88
2022/09/13 06:52:56;;;;;;;0.57;0.32;;;16.80;99.90;;;;;;4981069;28;20057;-88
2022/09/13 06:55:22;;;;;;;0.20;0.20;;;16.90;99.90;;;;;;4981738;28;20042;-88
2022/09/13 06:57:47;;;;;;;0.25;0.20;;;16.80;99.90;;;;;;4965247;28;20048;-88
2022/09/13 07:00:14;;;;;;;0.87;0.20;;;16.80;99.90;;;;;;4998146;28;20500;-88
2022/09/13 07:02:39;;;;;;;0.38;0.22;;;16.90;99.90;;;;;;4965630;28;20416;-87
2022/09/13 07:05:06;;;;;;;0.30;0.30;;;16.90;99.90;;;;;;4981230;28;20497;-87
2022/09/13 07:07:31;;;;;;;0.40;0.30;;;16.90;99.90;;;;;;4997963;28;20061;-87
2022/09/13 07:09:57;;;;;;;0.53;0.13;;;16.90;99.90;;;;;;4981075;28;20100;-87
2022/09/13 07:12:23;;;;;;;0.30;0.25;;;17.00;99.90;;;;;;4981521;28;20108;-87
2022/09/13 07:14:48;;;;;;;0.10;0.10;;;16.90;99.90;;;;;;4980494;28;20140;-88
2022/09/13 07:17:14;;;;;;;0.27;0.20;;;17.00;99.90;;;;;;4981439;28;20053;-87
2022/09/13 07:19:40;;;;;;;0.30;0.13;;;17.00;99.90;;;;;;4965333;28;20293;-87
2022/09/13 07:22:05;;;;;;;0.30;0.20;;;17.00;99.90;;;;;;4997100;28;20734;-88
2022/09/13 07:24:31;;;;;;;0.03;0.03;;;17.10;99.90;;;;;;4964786;28;20484;-87
2022/09/13 07:26:57;;;;;;;0.67;0.20;;;17.20;99.90;;;;;;4980759;28;20485;-87
2022/09/13 07:29:23;;;;;;;0.10;0.10;;;17.20;99.90;;;;;;4965234;28;20380;-87
2022/09/13 07:31:51;;;;;;;0.57;0.30;;;17.30;99.90;;;;;;4996726;28;20506;-88
2022/09/13 07:34:19;;;;;;;0.60;0.30;;;17.50;99.90;;;;;;4997265;28;20127;-87
2022/09/13 07:36:46;;;;;;;0.38;0.38;;;17.60;99.90;;;;;;4980673;28;20054;-87
2022/09/13 07:39:13;;;;;;;0.17;0.10;;;17.70;99.90;;;;;;4982242;28;20049;-87
2022/09/13 07:41:39;;;;;;;0.20;0.20;;;17.90;99.90;;;;;;4996970;28;20089;-87
2022/09/13 07:44:06;;;;;;;0.20;0.20;;;18.00;99.90;;;;;;4980017;28;20069;-87
2022/09/13 07:46:38;;;;;;;0.17;0.10;;;18.10;99.90;;;;;;4981163;28;20046;-88
2022/09/13 07:49:05;;;;;;;0.22;0.22;;;18.30;99.90;;;;;;4996611;28;20052;-88
2022/09/13 07:51:38;;;;;;;0.40;0.10;;;18.60;99.90;;;;;;4980490;28;20512;-88
2022/09/13 07:54:08;;;;;;;0.00;0.00;;;18.90;99.90;;;;;;4996565;28;20100;-88
2022/09/13 07:56:36;;;;;;;0.00;0.00;;;19.00;99.90;;;;;;4996938;28;20045;-88
2022/09/13 07:59:04;;;;;;;0.25;0.10;;;19.10;99.90;;;;;;5013764;28;20077;-88
2022/09/13 08:01:37;;;;;;;0.03;0.03;;;19.30;99.90;;;;;;4997366;28;20506;-88
2022/09/13 08:04:06;;;;;;;0.20;0.20;;;19.30;99.90;;;;;;4996247;28;20054;-88
2022/09/13 08:06:33;;;;;;;0.10;0.10;;;19.30;99.90;;;;;;4980361;28;20046;-88
2022/09/13 08:08:58;;;;;;;0.00;0.00;;;19.20;99.90;;;;;;4979696;28;20050;-88
2022/09/13 08:11:28;;;;;;;0.08;0.08;;;19.20;99.90;;;;;;4948036;28;20042;-89
2022/09/13 08:13:54;;;;;;;0.00;0.00;;;19.20;99.90;;;;;;4995818;28;20046;-89
2022/09/13 08:16:22;;;;;;;0.20;0.20;;;19.10;99.90;;;;;;4980211;28;20087;-88
2022/09/13 08:18:52;;;;;;;0.00;0.00;;;19.20;99.90;;;;;;4996364;28;20053;-88
2022/09/13 08:21:18;;;;;;;0.20;0.20;;;19.40;99.90;;;;;;4979948;28;20049;-88
2022/09/13 08:23:44;;;;;;;0.20;0.20;;;19.50;99.90;;;;;;4963979;28;20050;-89
2022/09/13 08:26:10;;;;;;;0.03;0.03;;;19.50;99.90;;;;;;4963647;28;20049;-89
2022/09/13 08:28:37;;;;;;;0.10;0.10;;;19.40;99.90;;;;;;4996423;28;20048;-89
2022/09/13 08:31:11;;;;;;;0.10;0.03;;;19.20;99.90;;;;;;4996493;28;20099;-89
2022/09/13 08:33:37;;;;;;;0.10;0.10;;;19.30;99.90;;;;;;4996708;28;20165;-89
2022/09/13 08:36:04;;;;;;;0.30;0.30;;;19.50;99.90;;;;;;4963107;28;20140;-89
2022/09/13 08:38:30;;;;;;;0.10;0.08;;;19.50;99.90;;;;;;4979789;28;20096;-90
2022/09/13 08:41:04;;;;;;;0.10;0.10;;;19.70;99.90;;;;;;4964423;28;20081;-89
2022/09/13 08:43:52;;;;;;;0.00;0.00;;;19.70;99.90;;;;;;4979468;28;20054;-89
2022/09/13 08:46:32;;;;;;;0.00;0.00;;;19.50;99.90;;;;;;4995573;28;20378;-90
2022/09/13 08:49:03;;;;;;;0.10;0.10;;;19.50;99.90;;;;;;4995917;28;20056;-90
2022/09/13 08:51:40;;;;;;;0.10;0.10;;;19.50;99.90;;;;;;4995636;28;20547;-89
2022/09/13 08:54:10;;;;;;;0.45;0.10;;;19.70;99.90;;;;;;4979309;28;20050;-89
2022/09/13 08:57:12;;;;;;;0.17;0.17;;;19.80;99.90;;;;;;4979430;28;20050;-89
2022/09/13 08:59:59;;;;;;;0.10;0.10;;;19.90;99.90;;;;;;4995793;28;20056;-89
2022/09/13 09:02:43;;;;;;;0.05;0.05;;;19.90;99.90;;;;;;4979225;28;20448;-90
2022/09/13 09:05:21;;;;;;;0.00;0.00;;;19.90;99.90;;;;;;4979235;28;20159;-89
2022/09/13 09:07:58;;;;;;;0.03;0.03;;;19.90;99.90;;;;;;4995728;28;20197;-90
2022/09/13 09:10:32;;;;;;;0.00;0.00;;;20.00;99.90;;;;;;4979038;28;20095;-90
2022/09/13 09:13:04;;;;;;;0.00;0.00;;;19.90;99.90;;;;;;4979589;28;20062;-90
2022/09/13 09:15:42;;;;;;;0.00;0.00;;;19.90;99.90;;;;;;4996045;28;20046;-90
2022/09/13 09:18:16;;;;;;;0.08;0.08;;;19.80;99.90;;;;;;4995350;28;20445;-90
2022/09/13 09:20:46;;;;;;;0.08;0.00;;;19.80;99.90;;;;;;4995746;28;20401;-90
2022/09/13 09:23:20;;;;;;;0.00;0.00;;;19.90;99.90;;;;;;4978936;28;20049;-90
2022/09/13 09:25:47;;;;;;;0.10;0.10;;;19.90;99.90;;;;;;4995768;28;20136;-90
2022/09/13 09:28:15;;;;;;;0.00;0.00;;;19.90;99.90;;;;;;4995280;28;20049;-89
2022/09/13 09:31:04;;;;;;;0.03;0.03;;;19.80;99.90;;;;;;4997907;28;20041;-90
2022/09/13 09:33:41;;;;;;;0.10;0.10;;;19.70;99.90;;;;;;4980166;28;20052;-90
2022/09/13 09:36:30;;;;;;;0.00;0.00;;;19.70;99.90;;;;;;4980971;28;20063;-91
2022/09/13 09:38:56;;;;;;;0.00;0.00;;;19.70;99.90;;;;;;4979920;28;20046;-91
2022/09/13 09:41:29;;;;;;;0.00;0.00;;;19.80;99.90;;;;;;4963036;28;20480;-90
2022/09/13 09:44:08;;;;;;;0.08;0.08;;;20.00;99.90;;;;;;4978681;28;20058;-91
2022/09/13 09:46:38;;;;;;;0.00;0.00;;;20.20;99.90;;;;;;4981204;28;20546;-91
2022/09/13 09:52:11;;;;;;;0.10;0.10;;;20.20;99.90;;;;;;4999277;28;20145;-91
2022/09/13 09:54:38;;;;;;;0.10;0.10;;;20.20;99.90;;;;;;4999450;28;20050;-91
2022/09/13 09:57:07;;;;;;;0.10;0.10;;;20.30;99.90;;;;;;4982794;28;20057;-91
2022/09/13 09:59:35;;;;;;;0.00;0.00;;;20.40;99.90;;;;;;4999763;28;20093;-91
2022/09/13 10:02:13;;;;;;;0.28;0.22;;;20.40;99.90;;;;;;5003474;28;20053;-91
2022/09/13 10:04:39;;;;;;;0.35;0.08;;;20.40;99.90;;;;;;4999232;28;20061;-91
2022/09/13 10:07:25;;;;;;;;;;;20.40;99.90;;;;;;4967117;28;20052;-91
2022/09/13 10:10:30;;;;;;;0.00;0.00;;;20.50;99.90;;;;;;4998739;28;20020;-91
2022/09/13 10:12:58;;;;;;;0.10;0.10;;;20.60;99.90;;;;;;4998770;28;20104;-91
2022/09/13 10:15:28;;;;;;;0.10;0.10;;;20.70;99.90;;;;;;4998307;28;20077;-91
2022/09/13 10:18:12;;;;;;;0.00;0.00;;;20.90;99.90;;;;;;4998978;28;20104;-91
2022/09/13 10:20:38;;;;;;;0.00;0.00;;;21.10;99.90;;;;;;4982536;28;20049;-91
2022/09/13 10:23:20;;;;;;;0.00;0.00;;;21.20;99.90;;;;;;4998515;28;20040;-91
2022/09/13 10:26:08;;;;;;;1.10;0.00;;;21.20;99.90;;;;;;4982327;28;20100;-91
2022/09/13 10:28:54;;;;;;;0.00;0.00;;;21.30;99.90;;;;;;4997866;28;20508;-91
2022/09/13 10:31:26;;;;;;;0.00;0.00;;;21.40;99.90;;;;;;4997938;28;20132;-91
2022/09/13 10:33:57;;;;;;;0.00;0.00;;;21.30;99.90;;;;;;4998376;28;20046;-91
2022/09/13 10:36:32;;;;;;;0.00;0.00;;;21.40;99.90;;;;;;4997840;28;20052;-91
2022/09/13 10:39:05;;;;;;;0.00;0.00;;;21.40;99.90;;;;;;4998236;28;20056;-91
2022/09/13 10:41:34;;;;;;;0.13;0.03;;;21.20;99.90;;;;;;4997898;28;20061;-91
2022/09/13 10:44:03;;;;;;;0.00;0.00;;;21.20;99.90;;;;;;4997744;28;20065;-91
2022/09/13 10:46:32;;;;;;;0.10;0.10;;;21.20;99.90;;;;;;4997710;28;20054;-91
2022/09/13 10:48:58;;;;;;;0.00;0.00;;;21.10;99.90;;;;;;5015285;28;20041;-91
2022/09/13 10:51:33;;;;;;;0.05;0.05;;;21.00;99.90;;;;;;4997434;28;20067;-91
2022/09/13 10:54:16;;;;;;;0.00;0.00;;;21.00;99.90;;;;;;4998199;28;20123;-91
2022/09/13 10:56:42;;;;;;;0.00;0.00;;;21.10;99.90;;;;;;4997220;28;20049;-91
2022/09/13 10:59:28;;;;;;;0.10;0.10;;;21.20;99.90;;;;;;4996897;28;20053;-90
2022/09/13 11:02:16;;;;;;;0.08;0.03;;;21.20;99.90;;;;;;4965640;28;20401;-90
2022/09/13 11:05:00;;;;;;;0.10;0.10;;;21.20;99.90;;;;;;4997227;28;20447;-90
2022/09/13 11:07:49;;;;;;;0.40;0.40;;;21.30;99.90;;;;;;4997403;28;20141;-91
2022/09/13 11:10:26;;;;;;;0.00;0.00;;;21.50;99.90;;;;;;4980550;28;20137;-91
2022/09/13 11:13:20;;;;;;;0.10;0.10;;;21.60;99.90;;;;;;4981343;28;20050;-91
2022/09/13 11:15:59;;;;;;;0.10;0.10;;;21.70;99.90;;;;;;4982300;28;20132;-91
2022/09/13 11:18:24;;;;;;;0.08;0.08;;;21.80;99.90;;;;;;5015798;28;20545;-91
2022/09/13 11:20:59;;;;;;;0.20;0.20;;;21.80;99.90;;;;;;4982501;28;20077;-91
2022/09/13 11:23:57;;;;;;;0.10;0.10;;;21.90;99.90;;;;;;4981931;28;20135;-91
2022/09/13 11:26:53;;;;;;;0.03;0.03;;;22.10;99.90;;;;;;4981674;28;20512;-91
2022/09/13 11:29:27;;;;;;;1.27;0.00;;;22.20;99.90;;;;;;4981193;28;20046;-90
2022/09/13 11:32:02;;;;;;;0.00;0.00;;;22.20;99.90;;;;;;4996938;28;20090;-90
2022/09/13 11:34:48;;;;;;;0.00;0.00;;;22.00;99.90;;;;;;4980589;28;20061;-91
2022/09/13 11:37:16;;;;;;;0.00;0.00;;;21.80;99.90;;;;;;4997456;28;20104;-91
2022/09/13 11:40:15;;;;;;;0.00;0.00;;;21.70;99.90;;;;;;4996699;28;20042;-91
2022/09/13 11:43:00;;;;;;;0.10;0.10;;;21.60;99.90;;;;;;4980361;28;20058;-91
2022/09/13 11:45:29;;;;;;;0.00;0.00;;;21.70;99.90;;;;;;4980326;28;20543;-91
2022/09/13 11:48:19;;;;;;;0.00;0.00;;;21.70;99.90;;;;;;4980774;28;20436;-92
2022/09/13 11:51:20;;;;;;;0.10;0.10;;;21.90;99.90;;;;;;4996333;28;20042;-91
2022/09/13 11:54:31;;;;;;;0.00;0.00;;;22.00;99.90;;;;;;4980193;28;20488;-91
2022/09/13 11:57:32;;;;;;;0.10;0.00;;;22.10;99.90;;;;;;4997683;28;20045;-91
2022/09/13 12:00:09;;;;;;;0.10;0.10;;;22.30;99.90;;;;;;4992964;28;20084;-90
2022/09/13 12:02:56;;;;;;;0.15;0.13;;;22.40;99.90;;;;;;4983760;28;20049;-91
2022/09/13 12:05:26;;;;;;;0.05;0.05;;;22.40;99.90;;;;;;5000348;28;20042;-91
2022/09/13 12:08:11;;;;;;;0.00;0.00;;;22.50;99.90;;;;;;4999680;28;20099;-91
2022/09/13 12:10:41;;;;;;;0.03;0.03;;;22.40;99.90;;;;;;4979114;28;20046;-91
2022/09/13 12:13:13;;;;;;;0.10;0.10;;;22.20;99.90;;;;;;4980570;28;20509;-91
2022/09/13 12:15:43;;;;;;;0.10;0.10;;;22.10;99.90;;;;;;4996080;28;20048;-90
2022/09/13 12:18:21;;;;;;;0.03;0.03;;;21.80;99.90;;;;;;4980406;28;20129;-91
2022/09/13 12:20:49;;;;;;;0.15;0.15;;;20.80;99.90;;;;;;4981114;28;20054;-91
2022/09/13 12:23:24;;;;;;;0.10;0.10;;;21.70;99.90;;;;;;4997430;28;20045;-91
2022/09/13 12:26:14;;;;;;;0.03;0.03;;;21.90;99.90;;;;;;4996648;28;20107;-91
2022/09/13 12:28:47;;;;;;;0.10;0.10;;;22.00;99.90;;;;;;4995820;28;20112;-91
2022/09/13 12:31:20;;;;;;;0.00;0.00;;;22.30;99.90;;;;;;5018914;28;20042;-91
2022/09/13 12:33:47;;;;;;;0.00;0.00;;;22.40;99.90;;;;;;4979581;28;20395;-91
2022/09/13 12:36:43;;;;;;;0.00;0.00;;;22.40;99.90;;;;;;4964026;28;20142;-90
2022/09/13 12:39:30;;;;;;;0.03;0.03;;;22.40;99.90;;;;;;4980299;28;20133;-90
2022/09/13 12:42:10;;;;;;;0.00;0.00;;;22.40;99.90;;;;;;4979470;28;20081;-90
2022/09/13 12:44:42;;;;;;;0.40;0.00;;;22.40;99.90;;;;;;4995247;28;20404;-91
2022/09/13 12:47:19;;;;;;;0.00;0.00;;;22.40;99.90;;;;;;4979337;28;20137;-90
2022/09/13 12:50:29;;;;;;;0.00;0.00;;;22.50;99.90;;;;;;4979255;28;20046;-91
2022/09/13 12:53:29;;;;;;;0.28;0.10;;;22.60;99.90;;;;;;4995724;28;20054;-91
2022/09/13 12:56:33;;;;;;;0.17;0.17;;;22.60;99.90;;;;;;4979659;28;20508;-91
2022/09/13 12:59:18;;;;;;;0.20;0.20;;;22.50;99.90;;;;;;4979442;28;20050;-92
2022/09/13 13:01:47;;;;;;;0.10;0.10;;;22.50;99.90;;;;;;4979862;28;20503;-92
2022/09/13 13:04:24;;;;;;;0.20;0.10;;;22.50;99.90;;;;;;4980054;28;20054;-92
2022/09/13 13:07:00;;;;;;;0.10;0.10;;;22.60;99.90;;;;;;5012826;28;20046;-91
2022/09/13 13:09:44;;;;;;;0.00;0.00;;;22.70;99.90;;;;;;4996440;28;20050;-91
2022/09/13 13:12:30;;;;;;;0.00;0.00;;;22.80;99.90;;;;;;4995941;28;20382;-91
2022/09/13 13:14:56;;;;;;;0.00;0.00;;;22.70;99.90;;;;;;4979246;28;20050;-93
2022/09/13 13:17:48;;;;;;;0.00;0.00;;;22.80;99.90;;;;;;4995991;28;20105;-92
2022/09/13 13:20:42;;;;;;;0.20;0.20;;;22.70;99.90;;;;;;4995973;28;20492;-92
2022/09/13 13:23:20;;;;;;;0.05;0.05;;;22.70;99.90;;;;;;4999920;28;20469;-92